createdAt,value
2023-04-05T00:01:51.647Z,6.50
2023-04-05T00:04:08.937Z,5.50
2023-04-05T00:06:26.092Z,6.13
2023-04-05T00:08:43.114Z,6.22
2023-04-05T00:11:00.436Z,6.35
2023-04-05T00:13:17.362Z,7.35
2023-04-05T00:15:34.400Z,10.10
2023-04-05T00:17:51.318Z,5.57
2023-04-05T00:20:08.365Z,6.15
2023-04-05T00:22:25.341Z,5.75
2023-04-05T00:24:42.667Z,6.53
2023-04-05T00:26:59.925Z,6.38
2023-04-05T00:29:17.233Z,6.97
2023-04-05T00:31:34.215Z,7.05
2023-04-05T00:33:51.319Z,7.43
2023-04-05T00:36:08.249Z,5.82
2023-04-05T00:38:25.634Z,9.65
2023-04-05T00:40:43.003Z,7.43
2023-04-05T00:43:00.589Z,6.88
2023-04-05T00:45:17.606Z,8.57
2023-04-05T00:47:34.613Z,6.60
2023-04-05T00:49:51.676Z,9.10
2023-04-05T00:52:08.852Z,7.82
2023-04-05T00:54:26.182Z,6.15
2023-04-05T00:56:43.420Z,5.97
2023-04-05T00:59:00.502Z,5.93
2023-04-05T01:01:18.583Z,6.50
2023-04-05T01:03:35.627Z,8.68
2023-04-05T01:05:52.649Z,6.22
2023-04-05T01:08:09.968Z,7.28
2023-04-05T01:10:27.336Z,6.95
2023-04-05T01:12:45.392Z,10.15
2023-04-05T01:15:02.484Z,7.47
2023-04-05T01:17:19.386Z,8.15
2023-04-05T01:19:36.653Z,10.75
2023-04-05T01:21:53.709Z,7.45
2023-04-05T01:24:11.983Z,7.80
2023-04-05T01:26:29.251Z,9.75
2023-04-05T01:28:46.247Z,9.15
2023-04-05T01:31:03.327Z,7.45
2023-04-05T01:33:21.399Z,8.23
2023-04-05T01:35:38.461Z,7.68
2023-04-05T01:37:55.817Z,8.30
2023-04-05T01:40:12.742Z,6.88
2023-04-05T01:42:30.783Z,7.65
2023-04-05T01:44:47.716Z,7.00
2023-04-05T01:47:05.112Z,7.88
2023-04-05T01:49:22.062Z,9.13
2023-04-05T01:51:38.898Z,7.72
2023-04-05T01:53:55.819Z,8.95
2023-04-05T01:56:12.786Z,8.07
2023-04-05T01:58:30.854Z,9.40
2023-04-05T02:00:48.182Z,9.27
2023-04-05T02:03:05.403Z,9.10
2023-04-05T02:05:22.612Z,10.60
2023-04-05T02:07:39.566Z,6.88
2023-04-05T02:09:56.916Z,6.75
2023-04-05T02:12:14.274Z,8.57
2023-04-05T02:14:31.698Z,7.50
2023-04-05T02:16:48.799Z,7.75
2023-04-05T02:19:08.704Z,8.68
2023-04-05T02:21:28.469Z,10.43
2023-04-05T02:23:45.657Z,9.05
2023-04-05T02:26:02.910Z,8.45
2023-04-05T02:28:20.143Z,7.65
2023-04-05T02:30:38.074Z,8.65
2023-04-05T02:32:55.497Z,8.25
2023-04-05T02:35:12.751Z,8.55
2023-04-05T02:37:30.060Z,7.88
2023-04-05T02:39:47.345Z,8.88
2023-04-05T02:42:04.643Z,9.80
2023-04-05T02:44:21.530Z,6.53
2023-04-05T02:46:38.750Z,7.82
2023-04-05T02:48:56.064Z,11.20
2023-04-05T02:51:13.117Z,6.60
2023-04-05T02:53:30.354Z,6.38
2023-04-05T02:55:47.646Z,7.03
2023-04-05T02:58:04.688Z,8.73
2023-04-05T03:00:21.748Z,10.55
2023-04-05T03:02:38.746Z,7.90
2023-04-05T03:04:56.838Z,6.82
2023-04-05T03:07:15.254Z,10.68
2023-04-05T03:09:33.793Z,9.32
2023-04-05T03:11:50.900Z,7.35
2023-04-05T03:14:07.946Z,7.22
2023-04-05T03:16:25.291Z,7.63
2023-04-05T03:18:42.686Z,7.45
2023-04-05T03:20:59.637Z,9.52
2023-04-05T03:23:17.792Z,8.15
2023-04-05T03:25:35.076Z,7.57
2023-04-05T03:27:52.065Z,7.97
2023-04-05T03:30:08.970Z,10.40
2023-04-05T03:32:26.248Z,10.00
2023-04-05T03:34:43.253Z,9.20
2023-04-05T03:37:00.556Z,6.90
2023-04-05T03:39:17.848Z,9.38
2023-04-05T03:41:34.979Z,10.68
2023-04-05T03:43:52.348Z,7.90
2023-04-05T03:46:09.701Z,7.70
2023-04-05T03:48:26.962Z,12.48
2023-04-05T03:50:43.867Z,9.23
2023-04-05T03:53:00.878Z,9.07
2023-04-05T03:55:18.191Z,8.73
2023-04-05T03:57:36.058Z,8.70
2023-04-05T03:59:53.067Z,8.63
2023-04-05T04:02:10.159Z,12.02
2023-04-05T04:04:27.230Z,9.68
2023-04-05T04:06:44.147Z,9.10
2023-04-05T04:09:01.333Z,8.65
2023-04-05T04:11:18.221Z,8.90
2023-04-05T04:13:35.307Z,9.02
2023-04-05T04:15:52.382Z,8.13
2023-04-05T04:18:09.608Z,9.18
2023-04-05T04:20:26.670Z,7.75
2023-04-05T04:22:43.919Z,9.35
2023-04-05T04:25:00.932Z,10.55
2023-04-05T04:27:17.765Z,9.50
2023-04-05T04:29:34.801Z,10.15
2023-04-05T04:31:52.144Z,8.63
2023-04-05T04:34:09.189Z,10.95
2023-04-05T04:36:26.130Z,8.18
2023-04-05T04:38:43.158Z,7.88
2023-04-05T04:41:00.440Z,10.13
2023-04-05T04:43:17.624Z,11.02
2023-04-05T04:45:34.823Z,10.68
2023-04-05T04:47:52.090Z,9.23
2023-04-05T04:50:09.433Z,9.82
2023-04-05T04:52:26.710Z,7.78
2023-04-05T04:54:43.750Z,8.20
2023-04-05T04:57:01.081Z,10.38
2023-04-05T04:59:18.180Z,10.13
2023-04-05T05:01:35.175Z,9.68
2023-04-05T05:03:52.259Z,12.05
2023-04-05T05:06:11.466Z,14.18
2023-04-05T05:08:28.795Z,11.50
2023-04-05T05:10:45.816Z,12.40
2023-04-05T05:13:02.763Z,14.45
2023-04-05T05:15:19.669Z,14.27
2023-04-05T05:17:36.996Z,13.20
2023-04-05T05:19:56.282Z,11.98
2023-04-05T05:22:13.645Z,12.82
2023-04-05T05:24:30.912Z,12.32
2023-04-05T05:26:48.145Z,12.73
2023-04-05T05:29:05.463Z,13.52
2023-04-05T05:31:22.480Z,13.52
2023-04-05T05:33:39.458Z,12.13
2023-04-05T05:35:56.539Z,11.98
2023-04-05T05:38:14.137Z,12.60
2023-04-05T05:40:31.393Z,11.45
2023-04-05T05:42:48.721Z,14.18
2023-04-05T05:45:05.752Z,11.68
2023-04-05T05:47:22.694Z,13.30
2023-04-05T05:49:39.594Z,14.48
2023-04-05T05:51:56.791Z,19.75
2023-04-05T05:54:14.140Z,19.15
2023-04-05T05:56:31.136Z,22.60
2023-04-05T05:58:48.410Z,27.92
2023-04-05T06:01:05.653Z,21.60
2023-04-05T06:03:22.780Z,19.95
2023-04-05T06:05:39.819Z,19.40
2023-04-05T06:07:56.876Z,14.77
2023-04-05T06:10:14.129Z,12.75
2023-04-05T06:12:31.070Z,11.02
2023-04-05T06:14:48.345Z,9.80
2023-04-05T06:17:05.335Z,9.75
2023-04-05T06:19:22.351Z,9.60
2023-04-05T06:21:39.366Z,11.00
2023-04-05T06:23:56.325Z,11.02
2023-04-05T06:26:13.299Z,8.88
2023-04-05T06:28:30.323Z,11.52
2023-04-05T06:30:47.318Z,8.68
2023-04-05T06:33:04.431Z,9.43
2023-04-05T06:35:21.385Z,10.63
2023-04-05T06:37:38.642Z,7.53
2023-04-05T06:39:55.544Z,10.20
2023-04-05T06:42:12.456Z,8.20
2023-04-05T06:44:30.432Z,11.50
2023-04-05T06:46:47.376Z,9.50
2023-04-05T06:49:04.704Z,8.35
2023-04-05T06:51:21.689Z,11.10
2023-04-05T06:53:38.753Z,10.68
2023-04-05T06:55:56.006Z,10.07
2023-04-05T06:58:14.315Z,8.23
2023-04-05T07:00:31.448Z,7.97
2023-04-05T07:02:48.452Z,10.52
2023-04-05T07:05:05.715Z,11.20
2023-04-05T07:07:22.974Z,11.40
2023-04-05T07:09:40.200Z,9.68
2023-04-05T07:11:57.238Z,21.83
2023-04-05T07:14:14.263Z,14.65
2023-04-05T07:16:31.635Z,13.27
2023-04-05T07:18:48.732Z,11.30
2023-04-05T07:21:05.685Z,9.27
2023-04-05T07:23:23.210Z,10.93
2023-04-05T07:25:40.292Z,8.80
2023-04-05T07:27:58.166Z,12.65
2023-04-05T07:30:15.065Z,9.57
2023-04-05T07:32:32.114Z,9.85
2023-04-05T07:34:49.168Z,11.48
2023-04-05T07:37:07.173Z,9.25
2023-04-05T07:39:24.455Z,12.02
2023-04-05T07:41:43.032Z,8.73
2023-04-05T07:44:00.377Z,8.82
2023-04-05T07:46:17.228Z,9.50
2023-04-05T07:48:34.336Z,9.90
2023-04-05T07:50:51.320Z,9.63
2023-04-05T07:53:08.567Z,11.23
2023-04-05T07:55:25.838Z,10.38
2023-04-05T07:57:42.891Z,12.85
2023-04-05T07:59:59.782Z,9.05
2023-04-05T08:02:16.851Z,11.88
2023-04-05T08:04:33.889Z,10.88
2023-04-05T08:06:50.941Z,9.40
2023-04-05T08:09:08.194Z,11.40
2023-04-05T08:11:25.204Z,12.65
2023-04-05T08:13:42.130Z,9.20
2023-04-05T08:15:59.212Z,9.93
2023-04-05T08:18:16.202Z,11.68
2023-04-05T08:20:33.229Z,9.57
2023-04-05T08:22:50.170Z,11.95
2023-04-05T08:25:08.017Z,11.82
2023-04-05T08:27:26.255Z,12.57
2023-04-05T08:29:43.601Z,9.10
2023-04-05T08:32:00.688Z,9.80
2023-04-05T08:34:17.757Z,10.68
2023-04-05T08:36:34.812Z,7.28
2023-04-05T08:38:51.881Z,12.40
2023-04-05T08:41:08.881Z,11.25
2023-04-05T08:43:25.863Z,10.07
2023-04-05T08:45:42.925Z,10.27
2023-04-05T08:48:00.268Z,10.13
2023-04-05T08:50:17.351Z,9.25
2023-04-05T08:52:34.599Z,9.48
2023-04-05T08:54:51.623Z,11.00
2023-04-05T08:57:09.753Z,12.38
2023-04-05T08:59:26.725Z,12.35
2023-04-05T09:01:43.721Z,10.30
2023-04-05T09:04:00.789Z,7.68
2023-04-05T09:06:17.719Z,6.15
2023-04-05T09:08:34.630Z,11.30
2023-04-05T09:10:51.573Z,7.32
2023-04-05T09:13:11.310Z,7.68
2023-04-05T09:15:28.243Z,6.72
2023-04-05T09:17:45.284Z,8.00
2023-04-05T09:20:02.206Z,9.65
2023-04-05T09:22:19.193Z,8.70
2023-04-05T09:24:36.489Z,6.78
2023-04-05T09:26:53.403Z,7.03
2023-04-05T09:29:10.423Z,7.40
2023-04-05T09:31:27.528Z,7.35
2023-04-05T09:33:44.492Z,6.80
2023-04-05T09:36:01.730Z,6.57
2023-04-05T09:38:18.662Z,6.80
2023-04-05T09:40:35.726Z,6.35
2023-04-05T09:42:52.966Z,5.47
2023-04-05T09:45:10.158Z,5.93
2023-04-05T09:47:28.203Z,7.82
2023-04-05T09:49:47.069Z,7.25
2023-04-05T09:52:03.989Z,7.13
2023-04-05T09:54:21.023Z,7.90
2023-04-05T09:56:37.994Z,9.82
2023-04-05T09:58:55.026Z,5.05
2023-04-05T10:01:17.219Z,7.88
2023-04-05T10:03:34.543Z,6.63
2023-04-05T10:05:51.864Z,7.97
2023-04-05T10:08:08.904Z,4.68
2023-04-05T10:10:26.134Z,6.68
2023-04-05T10:12:43.462Z,7.35
2023-04-05T10:15:00.553Z,6.07
2023-04-05T10:17:17.660Z,7.93
2023-04-05T10:19:34.968Z,7.90
2023-04-05T10:21:51.999Z,4.78
2023-04-05T10:24:09.046Z,6.03
2023-04-05T10:26:26.262Z,6.45
2023-04-05T10:28:43.513Z,7.45
2023-04-05T10:31:01.888Z,6.40
2023-04-05T10:33:18.832Z,6.63
2023-04-05T10:35:35.910Z,5.88
2023-04-05T10:37:54.038Z,6.47
2023-04-05T10:40:11.052Z,7.32
2023-04-05T10:42:27.981Z,6.72
2023-04-05T10:44:45.098Z,7.13
2023-04-05T10:47:02.264Z,6.65
2023-04-05T10:49:19.356Z,7.13
2023-04-05T10:51:36.281Z,7.07
2023-04-05T10:53:53.602Z,5.85
2023-04-05T10:56:10.676Z,8.98
2023-04-05T10:58:27.596Z,6.25
2023-04-05T11:00:44.662Z,8.15
2023-04-05T11:03:01.741Z,7.00
2023-04-05T11:05:18.741Z,6.43
2023-04-05T11:07:35.770Z,6.38
2023-04-05T11:09:52.874Z,8.18
2023-04-05T11:12:10.145Z,10.75
2023-04-05T11:14:27.121Z,9.40
2023-04-05T11:16:44.078Z,8.30
2023-04-05T11:19:01.301Z,6.78
2023-04-05T11:21:18.571Z,7.28
2023-04-05T11:23:36.611Z,6.97
2023-04-05T11:25:53.611Z,7.03
2023-04-05T11:28:10.872Z,7.90
2023-04-05T11:30:28.169Z,6.20
2023-04-05T11:32:45.523Z,6.70
2023-04-05T11:35:02.918Z,7.13
2023-04-05T11:37:20.024Z,6.28
2023-04-05T11:39:37.030Z,6.00
2023-04-05T11:41:54.340Z,6.55
2023-04-05T11:44:11.237Z,5.60
2023-04-05T11:46:28.177Z,5.43
2023-04-05T11:48:45.098Z,7.28
2023-04-05T11:51:02.083Z,7.97
2023-04-05T11:53:19.091Z,6.15
2023-04-05T11:55:36.100Z,10.02
2023-04-05T11:57:53.153Z,7.30
2023-04-05T12:00:10.088Z,8.77
2023-04-05T12:02:27.089Z,8.10
2023-04-05T12:04:44.446Z,5.78
2023-04-05T12:07:01.449Z,7.07
2023-04-05T12:09:18.695Z,5.80
2023-04-05T12:11:35.620Z,7.65
2023-04-05T12:13:52.960Z,5.28
2023-04-05T12:16:10.304Z,8.27
2023-04-05T12:18:27.673Z,6.63
2023-04-05T12:20:45.776Z,5.45
2023-04-05T12:23:02.802Z,5.15
2023-04-05T12:25:19.713Z,7.38
2023-04-05T12:27:38.276Z,7.82
2023-04-05T12:29:55.319Z,7.28
2023-04-05T12:32:12.454Z,7.30
2023-04-05T12:34:29.806Z,7.10
2023-04-05T12:36:47.857Z,6.35
2023-04-05T12:39:04.748Z,7.55
2023-04-05T12:41:23.022Z,7.63
2023-04-05T12:43:39.912Z,9.63
2023-04-05T12:45:57.209Z,5.97
2023-04-05T12:48:14.452Z,8.10
2023-04-05T12:50:31.529Z,6.18
2023-04-05T12:52:48.813Z,6.95
2023-04-05T12:55:05.859Z,6.90
2023-04-05T12:57:23.183Z,9.10
2023-04-05T12:59:40.068Z,6.25
2023-04-05T13:01:56.999Z,5.80
2023-04-05T13:04:16.905Z,5.97
2023-04-05T13:06:34.115Z,6.07
2023-04-05T13:08:51.184Z,6.28
2023-04-05T13:11:08.492Z,5.65
2023-04-05T13:13:25.773Z,6.07
2023-04-05T13:15:42.998Z,5.65
2023-04-05T13:18:00.264Z,6.55
2023-04-05T13:20:17.628Z,5.43
2023-04-05T13:22:34.640Z,5.15
2023-04-05T13:24:51.998Z,6.80
2023-04-05T13:27:09.305Z,5.55
2023-04-05T13:29:26.226Z,6.88
2023-04-05T13:31:43.329Z,5.80
2023-04-05T13:34:00.303Z,9.35
2023-04-05T13:36:17.180Z,6.45
2023-04-05T13:38:34.086Z,6.47
2023-04-05T13:40:51.092Z,6.38
2023-04-05T13:43:07.967Z,6.63
2023-04-05T13:45:32.201Z,6.82
2023-04-05T13:50:06.389Z,8.82
2023-04-05T13:52:23.478Z,7.85
2023-04-05T13:54:40.430Z,5.53
2023-04-05T13:56:57.369Z,8.18
2023-04-05T13:59:14.723Z,8.25
2023-04-05T14:01:31.879Z,6.93
2023-04-05T14:03:49.018Z,5.32
2023-04-05T14:06:05.987Z,10.68
2023-04-05T14:08:23.252Z,7.20
2023-04-05T14:10:40.648Z,7.25
2023-04-05T14:12:58.774Z,6.72
2023-04-05T14:15:15.754Z,5.82
2023-04-05T14:17:33.076Z,6.00
2023-04-05T14:19:50.073Z,6.68
2023-04-05T14:22:07.048Z,6.32
2023-04-05T14:24:24.075Z,5.88
2023-04-05T14:26:41.009Z,7.20
2023-04-05T14:28:57.910Z,4.20
2023-04-05T14:31:14.888Z,8.07
2023-04-05T14:33:31.908Z,6.45
2023-04-05T14:35:49.080Z,7.82
2023-04-05T14:38:06.135Z,6.63
2023-04-05T14:40:23.354Z,6.65
2023-04-05T14:42:48.461Z,5.93
2023-04-05T14:45:06.837Z,6.18
2023-04-05T14:47:24.068Z,6.60
2023-04-05T14:49:41.132Z,5.28
2023-04-05T14:51:58.196Z,5.97
2023-04-05T14:54:16.115Z,6.00
2023-04-05T14:56:33.181Z,7.63
2023-04-05T14:58:50.089Z,7.63
2023-04-05T15:01:07.163Z,6.20
2023-04-05T15:03:24.553Z,6.90
2023-04-05T15:05:41.508Z,6.60
2023-04-05T15:07:58.459Z,6.53
2023-04-05T15:10:15.388Z,5.60
2023-04-05T15:12:33.361Z,7.35
2023-04-05T15:14:50.323Z,7.10
2023-04-05T15:17:07.482Z,7.32
2023-04-05T15:19:24.632Z,5.97
2023-04-05T15:21:41.501Z,6.10
2023-04-05T15:23:58.472Z,7.18
2023-04-05T15:26:15.366Z,5.65
2023-04-05T15:28:32.344Z,4.95
2023-04-05T15:30:49.593Z,5.22
2023-04-05T15:33:06.653Z,4.68
2023-04-05T15:35:24.979Z,5.85
2023-04-05T15:37:41.903Z,7.18
2023-04-05T15:40:00.676Z,5.82
2023-04-05T15:42:18.912Z,7.03
2023-04-05T15:44:35.839Z,8.13
2023-04-05T15:46:52.896Z,7.65
2023-04-05T15:49:12.944Z,5.60
2023-04-05T15:51:31.118Z,6.38
2023-04-05T15:53:48.130Z,6.30
2023-04-05T15:56:05.110Z,6.57
2023-04-05T15:58:22.151Z,6.22
2023-04-05T16:00:39.185Z,7.95
2023-04-05T16:02:57.404Z,8.13
2023-04-05T16:05:15.505Z,6.03
2023-04-05T16:07:32.520Z,7.00
2023-04-05T16:09:49.835Z,6.68
2023-04-05T16:12:07.055Z,6.97
2023-04-05T16:14:24.026Z,7.95
2023-04-05T16:16:50.096Z,8.25
2023-04-05T16:19:09.787Z,5.78
2023-04-05T16:21:26.696Z,5.05
2023-04-05T16:23:43.726Z,7.25
2023-04-05T16:26:00.978Z,4.80
2023-04-05T16:28:18.035Z,6.10
2023-04-05T16:30:35.029Z,5.57
2023-04-05T16:32:51.966Z,5.63
2023-04-05T16:35:09.294Z,5.28
2023-04-05T16:37:26.217Z,6.95
2023-04-05T16:39:43.452Z,5.57
2023-04-05T16:42:00.468Z,7.85
2023-04-05T16:44:18.065Z,6.13
2023-04-05T16:46:34.930Z,7.28
2023-04-05T16:48:51.945Z,5.90
2023-04-05T16:51:09.082Z,6.10
2023-04-05T16:53:26.045Z,6.22
2023-04-05T16:55:42.958Z,6.20
2023-04-05T16:58:00.919Z,6.07
2023-04-05T17:00:17.902Z,6.95
2023-04-05T17:02:35.226Z,6.22
2023-04-05T17:04:52.229Z,6.47
2023-04-05T17:07:09.254Z,5.95
2023-04-05T17:09:26.493Z,5.25
2023-04-05T17:11:43.491Z,5.18
2023-04-05T17:14:00.412Z,5.57
2023-04-05T17:16:17.749Z,6.82
2023-04-05T17:18:36.069Z,7.07
2023-04-05T17:20:53.354Z,6.25
2023-04-05T17:23:10.721Z,6.93
2023-04-05T17:25:27.645Z,6.35
2023-04-05T17:27:44.540Z,9.75
2023-04-05T17:30:01.421Z,6.35
2023-04-05T17:32:18.719Z,6.93
2023-04-05T17:34:35.979Z,7.07
2023-04-05T17:36:53.016Z,5.68
2023-04-05T17:39:09.965Z,5.53
2023-04-05T17:41:26.886Z,6.82
2023-04-05T17:43:43.807Z,7.85
2023-04-05T17:46:00.648Z,5.30
2023-04-05T17:48:17.672Z,5.97
2023-04-05T17:50:34.650Z,5.50
2023-04-05T17:52:51.889Z,5.22
2023-04-05T17:55:08.894Z,6.05
2023-04-05T17:57:25.950Z,5.40
2023-04-05T17:59:44.310Z,5.10
2023-04-05T18:02:01.295Z,8.48
2023-04-05T18:04:18.358Z,6.85
2023-04-05T18:06:35.409Z,3.90
2023-04-05T18:08:52.327Z,5.43
2023-04-05T18:11:09.371Z,6.82
2023-04-05T18:13:26.675Z,7.22
2023-04-05T18:15:44.047Z,6.20
2023-04-05T18:18:00.926Z,5.57
2023-04-05T18:20:17.999Z,6.57
2023-04-05T18:22:34.925Z,5.88
2023-04-05T18:24:51.923Z,6.13
2023-04-05T18:27:09.890Z,5.53
2023-04-05T18:29:26.797Z,5.75
2023-04-05T18:31:44.105Z,4.85
2023-04-05T18:34:00.993Z,6.47
2023-04-05T18:36:18.192Z,6.43
2023-04-05T18:38:36.292Z,4.78
2023-04-05T18:40:53.327Z,5.97
2023-04-05T18:43:10.379Z,5.07
2023-04-05T18:45:27.422Z,6.03
2023-04-05T18:47:44.767Z,5.57
2023-04-05T18:50:01.699Z,5.45
2023-04-05T18:52:18.958Z,7.10
2023-04-05T18:54:37.866Z,4.78
2023-04-05T18:56:56.364Z,7.60
2023-04-05T18:59:13.449Z,4.47
2023-04-05T19:01:30.503Z,7.53
2023-04-05T19:03:47.708Z,4.88
2023-04-05T19:06:05.840Z,5.55
2023-04-05T19:08:23.068Z,4.90
2023-04-05T19:10:40.372Z,4.57
2023-04-05T19:12:57.424Z,4.35
2023-04-05T19:15:15.310Z,4.75
2023-04-05T19:17:32.589Z,6.95
2023-04-05T19:19:49.921Z,6.07
2023-04-05T19:22:07.224Z,5.78
2023-04-05T19:24:24.263Z,8.75
2023-04-05T19:26:41.486Z,5.63
2023-04-05T19:28:59.881Z,8.38
2023-04-05T19:31:17.107Z,7.38
2023-04-05T19:33:34.387Z,7.72
2023-04-05T19:35:51.395Z,5.25
2023-04-05T19:38:08.356Z,6.60
2023-04-05T19:40:25.294Z,9.60
2023-04-05T19:42:42.618Z,4.80
2023-04-05T19:44:59.626Z,7.85
2023-04-05T19:47:16.970Z,5.28
2023-04-05T19:49:33.888Z,5.35
2023-04-05T19:51:51.226Z,4.78
2023-04-05T19:54:09.123Z,5.95
2023-04-05T19:56:26.497Z,7.45
2023-04-05T19:58:43.575Z,8.23
2023-04-05T20:01:01.493Z,7.70
2023-04-05T20:03:18.737Z,4.38
2023-04-05T20:05:35.732Z,7.72
2023-04-05T20:07:54.058Z,5.88
2023-04-05T20:10:11.366Z,5.10
2023-04-05T20:12:28.397Z,5.38
2023-04-05T20:14:45.703Z,7.03
2023-04-05T20:17:02.725Z,5.47
2023-04-05T20:19:19.692Z,6.90
2023-04-05T20:21:36.635Z,7.47
2023-04-05T20:23:53.735Z,7.60
2023-04-05T20:26:10.774Z,4.90
2023-04-05T20:28:27.826Z,7.30
2023-04-05T20:30:45.151Z,6.75
2023-04-05T20:33:02.793Z,7.93
2023-04-05T20:35:20.114Z,6.28
2023-04-05T20:37:37.349Z,5.20
2023-04-05T20:39:54.664Z,7.75
2023-04-05T20:42:11.614Z,7.95
2023-04-05T20:44:28.709Z,7.00
2023-04-05T20:46:45.946Z,5.88
2023-04-05T20:49:03.266Z,6.70
2023-04-05T20:51:20.264Z,7.00
2023-04-05T20:53:37.229Z,5.50
2023-04-05T20:55:55.534Z,7.90
2023-04-05T20:58:12.579Z,6.97
2023-04-05T21:00:29.692Z,8.57
2023-04-05T21:02:47.670Z,9.05
2023-04-05T21:05:05.040Z,7.95
2023-04-05T21:07:23.084Z,8.27
2023-04-05T21:09:40.183Z,5.78
2023-04-05T21:11:58.171Z,6.78
2023-04-05T21:14:16.200Z,8.57
2023-04-05T21:16:33.094Z,8.60
2023-04-05T21:18:50.426Z,7.78
2023-04-05T21:21:07.695Z,7.68
2023-04-05T21:23:24.740Z,6.93
2023-04-05T21:25:41.729Z,7.00
2023-04-05T21:27:58.586Z,9.00
2023-04-05T21:30:15.638Z,10.35
2023-04-05T21:32:33.726Z,9.63
2023-04-05T21:34:50.644Z,9.05
2023-04-05T21:37:07.971Z,11.25
2023-04-05T21:39:24.855Z,13.32
2023-04-05T21:41:41.752Z,8.25
2023-04-05T21:43:59.088Z,8.85
2023-04-05T21:46:17.175Z,7.43
2023-04-05T21:48:36.152Z,8.43
2023-04-05T21:50:53.169Z,9.88
2023-04-05T21:53:10.099Z,9.75
2023-04-05T21:55:27.393Z,9.45
2023-04-05T21:57:45.290Z,7.63
2023-04-05T22:00:02.565Z,9.15
2023-04-05T22:02:20.714Z,8.15
2023-04-05T22:04:37.838Z,10.68
2023-04-05T22:06:54.801Z,11.35
2023-04-05T22:09:12.049Z,10.07
2023-04-05T22:11:29.034Z,8.95
2023-04-05T22:13:46.311Z,10.63
2023-04-05T22:16:03.418Z,10.50
2023-04-05T22:18:20.453Z,9.52
2023-04-05T22:20:37.380Z,9.90
2023-04-05T22:22:54.649Z,8.27
2023-04-05T22:25:11.711Z,10.55
2023-04-05T22:27:29.679Z,8.40
2023-04-05T22:29:46.652Z,10.70
2023-04-05T22:32:03.665Z,11.35
2023-04-05T22:34:21.002Z,8.75
2023-04-05T22:36:38.303Z,10.90
2023-04-05T22:38:55.613Z,8.95
2023-04-05T22:41:12.583Z,8.38
2023-04-05T22:43:29.839Z,9.85
2023-04-05T22:45:48.376Z,8.85
2023-04-05T22:48:06.529Z,6.88
2023-04-05T22:50:23.633Z,8.43
2023-04-05T22:52:40.646Z,8.73
2023-04-05T22:54:57.925Z,11.13
2023-04-05T22:57:16.182Z,10.98
2023-04-05T22:59:33.237Z,10.10
2023-04-05T23:01:50.349Z,9.60
2023-04-05T23:04:07.706Z,9.52
2023-04-05T23:06:24.746Z,12.73
2023-04-05T23:08:43.134Z,9.25
2023-04-05T23:11:00.147Z,10.63
2023-04-05T23:13:17.229Z,10.57
2023-04-05T23:15:34.253Z,10.90
2023-04-05T23:17:53.243Z,8.88
2023-04-05T23:20:10.310Z,9.00
2023-04-05T23:22:27.254Z,10.80
2023-04-05T23:24:44.202Z,11.20
2023-04-05T23:27:01.165Z,9.15
2023-04-05T23:29:18.528Z,9.30
2023-04-05T23:31:35.534Z,9.50
2023-04-05T23:33:52.628Z,10.98
2023-04-05T23:36:09.985Z,11.63
2023-04-05T23:38:27.012Z,11.05
2023-04-05T23:40:43.941Z,11.70
2023-04-05T23:43:01.070Z,10.98
2023-04-05T23:45:18.091Z,10.85
2023-04-05T23:47:35.083Z,8.63
2023-04-05T23:49:52.188Z,10.38
2023-04-05T23:52:09.517Z,10.23
2023-04-05T23:54:26.912Z,10.80
2023-04-05T23:56:44.234Z,8.60
2023-04-05T23:59:01.543Z,9.98
